sensor_id;sensor_type;location;lat;lon;timestamp;P1;durP1;ratioP1;P2;durP2;ratioP2
14994;SDS011;7593;49.006;8.372;2022-12-13T00:00:03;23.03;;;15.37;;
14994;SDS011;7593;49.006;8.372;2022-12-13T00:02:32;21.37;;;14.93;;
14994;SDS011;7593;49.006;8.372;2022-12-13T00:04:59;24.50;;;15.13;;
14994;SDS011;7593;49.006;8.372;2022-12-13T00:07:26;22.83;;;14.53;;
14994;SDS011;7593;49.006;8.372;2022-12-13T00:09:53;22.77;;;14.27;;
14994;SDS011;7593;49.006;8.372;2022-12-13T00:12:21;22.80;;;15.53;;
14994;SDS011;7593;49.006;8.372;2022-12-13T00:14:47;19.53;;;15.03;;
14994;SDS011;7593;49.006;8.372;2022-12-13T00:17:14;21.90;;;15.73;;
14994;SDS011;7593;49.006;8.372;2022-12-13T00:19:41;21.93;;;14.67;;
14994;SDS011;7593;49.006;8.372;2022-12-13T00:22:08;22.00;;;15.37;;
14994;SDS011;7593;49.006;8.372;2022-12-13T00:24:35;19.07;;;14.30;;
14994;SDS011;7593;49.006;8.372;2022-12-13T00:27:01;23.83;;;15.50;;
14994;SDS011;7593;49.006;8.372;2022-12-13T00:29:29;23.70;;;15.07;;
14994;SDS011;7593;49.006;8.372;2022-12-13T00:31:57;22.17;;;15.23;;
14994;SDS011;7593;49.006;8.372;2022-12-13T00:34:24;22.27;;;14.87;;
14994;SDS011;7593;49.006;8.372;2022-12-13T00:36:52;20.73;;;14.93;;
14994;SDS011;7593;49.006;8.372;2022-12-13T00:39:18;22.90;;;15.20;;
14994;SDS011;7593;49.006;8.372;2022-12-13T00:41:45;22.40;;;15.33;;
14994;SDS011;7593;49.006;8.372;2022-12-13T00:44:12;20.40;;;14.23;;
14994;SDS011;7593;49.006;8.372;2022-12-13T00:46:41;22.23;;;15.13;;
14994;SDS011;7593;49.006;8.372;2022-12-13T00:49:08;20.67;;;14.33;;
14994;SDS011;7593;49.006;8.372;2022-12-13T00:51:37;19.17;;;13.93;;
14994;SDS011;7593;49.006;8.372;2022-12-13T00:54:04;20.67;;;14.90;;
14994;SDS011;7593;49.006;8.372;2022-12-13T00:56:31;20.33;;;14.73;;
14994;SDS011;7593;49.006;8.372;2022-12-13T00:58:58;23.20;;;14.73;;
14994;SDS011;7593;49.006;8.372;2022-12-13T01:01:26;22.47;;;14.67;;
14994;SDS011;7593;49.006;8.372;2022-12-13T01:03:57;19.40;;;13.93;;
14994;SDS011;7593;49.006;8.372;2022-12-13T01:06:26;18.80;;;13.47;;
14994;SDS011;7593;49.006;8.372;2022-12-13T01:08:58;22.90;;;14.70;;
14994;SDS011;7593;49.006;8.372;2022-12-13T01:11:25;20.07;;;13.97;;
14994;SDS011;7593;49.006;8.372;2022-12-13T01:13:52;21.43;;;13.53;;
14994;SDS011;7593;49.006;8.372;2022-12-13T01:16:18;26.37;;;14.87;;
14994;SDS011;7593;49.006;8.372;2022-12-13T01:18:45;21.60;;;13.73;;
14994;SDS011;7593;49.006;8.372;2022-12-13T01:21:14;19.43;;;14.10;;
14994;SDS011;7593;49.006;8.372;2022-12-13T01:23:41;21.83;;;13.90;;
14994;SDS011;7593;49.006;8.372;2022-12-13T01:26:10;19.90;;;14.53;;
14994;SDS011;7593;49.006;8.372;2022-12-13T01:28:39;18.57;;;13.93;;
14994;SDS011;7593;49.006;8.372;2022-12-13T01:31:07;19.87;;;13.73;;
14994;SDS011;7593;49.006;8.372;2022-12-13T01:33:35;22.43;;;13.57;;
14994;SDS011;7593;49.006;8.372;2022-12-13T01:36:03;22.43;;;14.90;;
14994;SDS011;7593;49.006;8.372;2022-12-13T01:38:33;22.33;;;14.37;;
14994;SDS011;7593;49.006;8.372;2022-12-13T01:41:00;19.17;;;14.10;;
14994;SDS011;7593;49.006;8.372;2022-12-13T01:43:30;20.13;;;14.20;;
14994;SDS011;7593;49.006;8.372;2022-12-13T01:46:17;22.13;;;14.50;;
14994;SDS011;7593;49.006;8.372;2022-12-13T01:48:44;20.97;;;14.20;;
14994;SDS011;7593;49.006;8.372;2022-12-13T01:51:14;25.60;;;14.27;;
14994;SDS011;7593;49.006;8.372;2022-12-13T01:53:46;20.83;;;14.37;;
14994;SDS011;7593;49.006;8.372;2022-12-13T01:56:15;20.80;;;14.03;;
14994;SDS011;7593;49.006;8.372;2022-12-13T01:58:45;23.60;;;14.40;;
14994;SDS011;7593;49.006;8.372;2022-12-13T02:01:14;21.27;;;14.07;;
14994;SDS011;7593;49.006;8.372;2022-12-13T02:03:42;20.50;;;14.07;;
14994;SDS011;7593;49.006;8.372;2022-12-13T02:06:09;21.70;;;14.50;;
14994;SDS011;7593;49.006;8.372;2022-12-13T02:08:40;23.23;;;13.97;;
14994;SDS011;7593;49.006;8.372;2022-12-13T02:11:11;22.77;;;15.00;;
14994;SDS011;7593;49.006;8.372;2022-12-13T02:13:38;20.97;;;14.53;;
14994;SDS011;7593;49.006;8.372;2022-12-13T02:16:07;21.77;;;15.30;;
14994;SDS011;7593;49.006;8.372;2022-12-13T02:18:43;20.67;;;14.20;;
14994;SDS011;7593;49.006;8.372;2022-12-13T02:21:20;25.53;;;15.07;;
14994;SDS011;7593;49.006;8.372;2022-12-13T02:24:14;22.30;;;15.67;;
14994;SDS011;7593;49.006;8.372;2022-12-13T02:27:29;20.80;;;13.90;;
14994;SDS011;7593;49.006;8.372;2022-12-13T02:30:13;21.80;;;14.70;;
14994;SDS011;7593;49.006;8.372;2022-12-13T02:32:51;20.37;;;14.20;;
14994;SDS011;7593;49.006;8.372;2022-12-13T02:35:36;22.27;;;14.37;;
14994;SDS011;7593;49.006;8.372;2022-12-13T02:38:09;21.37;;;14.37;;
14994;SDS011;7593;49.006;8.372;2022-12-13T02:40:41;22.07;;;15.07;;
14994;SDS011;7593;49.006;8.372;2022-12-13T02:43:11;23.53;;;14.47;;
14994;SDS011;7593;49.006;8.372;2022-12-13T02:45:45;22.53;;;14.60;;
14994;SDS011;7593;49.006;8.372;2022-12-13T02:48:14;20.77;;;15.23;;
14994;SDS011;7593;49.006;8.372;2022-12-13T02:50:45;20.43;;;14.40;;
14994;SDS011;7593;49.006;8.372;2022-12-13T02:53:13;23.27;;;15.50;;
14994;SDS011;7593;49.006;8.372;2022-12-13T02:55:41;20.50;;;14.00;;
14994;SDS011;7593;49.006;8.372;2022-12-13T02:58:10;21.57;;;15.07;;
14994;SDS011;7593;49.006;8.372;2022-12-13T03:00:40;19.97;;;14.57;;
14994;SDS011;7593;49.006;8.372;2022-12-13T03:03:19;22.07;;;15.10;;
14994;SDS011;7593;49.006;8.372;2022-12-13T03:05:56;21.77;;;15.13;;
14994;SDS011;7593;49.006;8.372;2022-12-13T03:08:53;23.87;;;15.30;;
14994;SDS011;7593;49.006;8.372;2022-12-13T03:11:31;20.93;;;14.90;;
14994;SDS011;7593;49.006;8.372;2022-12-13T03:14:24;23.27;;;16.00;;
14994;SDS011;7593;49.006;8.372;2022-12-13T03:16:53;23.60;;;15.43;;
14994;SDS011;7593;49.006;8.372;2022-12-13T03:19:20;21.53;;;15.17;;
14994;SDS011;7593;49.006;8.372;2022-12-13T03:21:48;21.67;;;14.93;;
14994;SDS011;7593;49.006;8.372;2022-12-13T03:24:15;22.87;;;15.43;;
14994;SDS011;7593;49.006;8.372;2022-12-13T03:26:43;23.57;;;15.17;;
14994;SDS011;7593;49.006;8.372;2022-12-13T03:29:10;22.70;;;15.33;;
14994;SDS011;7593;49.006;8.372;2022-12-13T03:31:37;24.63;;;15.60;;
14994;SDS011;7593;49.006;8.372;2022-12-13T03:34:05;24.20;;;15.70;;
14994;SDS011;7593;49.006;8.372;2022-12-13T03:36:32;23.53;;;15.57;;
14994;SDS011;7593;49.006;8.372;2022-12-13T03:38:59;23.23;;;15.07;;
14994;SDS011;7593;49.006;8.372;2022-12-13T03:41:26;21.60;;;15.63;;
14994;SDS011;7593;49.006;8.372;2022-12-13T03:43:55;23.93;;;16.10;;
14994;SDS011;7593;49.006;8.372;2022-12-13T03:46:22;24.93;;;15.67;;
14994;SDS011;7593;49.006;8.372;2022-12-13T03:48:49;23.37;;;15.87;;
14994;SDS011;7593;49.006;8.372;2022-12-13T03:51:17;26.23;;;16.53;;
14994;SDS011;7593;49.006;8.372;2022-12-13T03:53:44;29.97;;;17.30;;
14994;SDS011;7593;49.006;8.372;2022-12-13T03:56:11;24.50;;;15.63;;
14994;SDS011;7593;49.006;8.372;2022-12-13T03:58:38;23.03;;;16.03;;
14994;SDS011;7593;49.006;8.372;2022-12-13T04:01:06;25.20;;;16.47;;
14994;SDS011;7593;49.006;8.372;2022-12-13T04:03:34;23.80;;;15.30;;
14994;SDS011;7593;49.006;8.372;2022-12-13T04:06:03;22.97;;;15.10;;
14994;SDS011;7593;49.006;8.372;2022-12-13T04:08:33;26.00;;;16.50;;
14994;SDS011;7593;49.006;8.372;2022-12-13T04:11:00;26.27;;;15.93;;
14994;SDS011;7593;49.006;8.372;2022-12-13T04:13:49;25.20;;;16.33;;
14994;SDS011;7593;49.006;8.372;2022-12-13T04:16:15;24.60;;;15.80;;
14994;SDS011;7593;49.006;8.372;2022-12-13T04:18:42;23.37;;;15.13;;
14994;SDS011;7593;49.006;8.372;2022-12-13T04:21:09;25.33;;;16.17;;
14994;SDS011;7593;49.006;8.372;2022-12-13T04:23:37;26.53;;;16.30;;
14994;SDS011;7593;49.006;8.372;2022-12-13T04:26:04;26.10;;;16.67;;
14994;SDS011;7593;49.006;8.372;2022-12-13T04:28:31;24.67;;;16.53;;
14994;SDS011;7593;49.006;8.372;2022-12-13T04:30:58;23.37;;;15.93;;
14994;SDS011;7593;49.006;8.372;2022-12-13T04:33:25;26.27;;;16.30;;
14994;SDS011;7593;49.006;8.372;2022-12-13T04:35:51;26.73;;;16.60;;
14994;SDS011;7593;49.006;8.372;2022-12-13T04:38:18;25.73;;;16.57;;
14994;SDS011;7593;49.006;8.372;2022-12-13T04:40:47;24.47;;;16.53;;
14994;SDS011;7593;49.006;8.372;2022-12-13T04:43:13;25.03;;;15.83;;
14994;SDS011;7593;49.006;8.372;2022-12-13T04:45:40;23.50;;;16.23;;
14994;SDS011;7593;49.006;8.372;2022-12-13T04:48:07;22.60;;;15.30;;
14994;SDS011;7593;49.006;8.372;2022-12-13T04:50:34;23.87;;;15.73;;
14994;SDS011;7593;49.006;8.372;2022-12-13T04:53:01;25.83;;;15.90;;
14994;SDS011;7593;49.006;8.372;2022-12-13T04:55:28;26.80;;;16.50;;
14994;SDS011;7593;49.006;8.372;2022-12-13T04:57:56;23.90;;;15.80;;
14994;SDS011;7593;49.006;8.372;2022-12-13T05:00:23;21.80;;;15.47;;
14994;SDS011;7593;49.006;8.372;2022-12-13T05:02:50;27.00;;;16.37;;
14994;SDS011;7593;49.006;8.372;2022-12-13T05:05:16;25.90;;;16.27;;
14994;SDS011;7593;49.006;8.372;2022-12-13T05:07:43;26.97;;;16.53;;
14994;SDS011;7593;49.006;8.372;2022-12-13T05:10:10;24.97;;;16.50;;
14994;SDS011;7593;49.006;8.372;2022-12-13T05:12:37;24.77;;;16.27;;
14994;SDS011;7593;49.006;8.372;2022-12-13T05:15:06;24.07;;;15.70;;
14994;SDS011;7593;49.006;8.372;2022-12-13T05:17:33;23.97;;;15.67;;
14994;SDS011;7593;49.006;8.372;2022-12-13T05:20:00;24.07;;;15.87;;
14994;SDS011;7593;49.006;8.372;2022-12-13T05:22:27;26.77;;;16.43;;
14994;SDS011;7593;49.006;8.372;2022-12-13T05:24:54;25.27;;;16.03;;
14994;SDS011;7593;49.006;8.372;2022-12-13T05:27:20;25.03;;;16.60;;
14994;SDS011;7593;49.006;8.372;2022-12-13T05:29:47;23.80;;;15.33;;
14994;SDS011;7593;49.006;8.372;2022-12-13T05:32:15;25.67;;;16.03;;
14994;SDS011;7593;49.006;8.372;2022-12-13T05:34:42;24.13;;;15.93;;
14994;SDS011;7593;49.006;8.372;2022-12-13T05:37:09;24.30;;;15.03;;
14994;SDS011;7593;49.006;8.372;2022-12-13T05:39:36;25.97;;;17.03;;
14994;SDS011;7593;49.006;8.372;2022-12-13T05:42:02;26.00;;;17.10;;
14994;SDS011;7593;49.006;8.372;2022-12-13T05:44:30;26.00;;;17.07;;
14994;SDS011;7593;49.006;8.372;2022-12-13T05:46:57;26.70;;;16.80;;
14994;SDS011;7593;49.006;8.372;2022-12-13T05:49:25;26.43;;;16.90;;
14994;SDS011;7593;49.006;8.372;2022-12-13T05:51:52;25.40;;;15.70;;
14994;SDS011;7593;49.006;8.372;2022-12-13T05:54:19;24.13;;;16.17;;
14994;SDS011;7593;49.006;8.372;2022-12-13T05:56:46;28.73;;;17.33;;
14994;SDS011;7593;49.006;8.372;2022-12-13T05:59:12;25.37;;;16.13;;
14994;SDS011;7593;49.006;8.372;2022-12-13T06:01:39;28.83;;;17.60;;
14994;SDS011;7593;49.006;8.372;2022-12-13T06:04:06;25.00;;;16.37;;
14994;SDS011;7593;49.006;8.372;2022-12-13T06:06:35;25.17;;;16.33;;
14994;SDS011;7593;49.006;8.372;2022-12-13T06:09:01;24.63;;;16.27;;
14994;SDS011;7593;49.006;8.372;2022-12-13T06:11:28;23.90;;;16.10;;
14994;SDS011;7593;49.006;8.372;2022-12-13T06:13:55;25.63;;;16.37;;
14994;SDS011;7593;49.006;8.372;2022-12-13T06:16:22;24.47;;;16.13;;
14994;SDS011;7593;49.006;8.372;2022-12-13T06:18:49;27.43;;;15.87;;
14994;SDS011;7593;49.006;8.372;2022-12-13T06:21:16;26.17;;;16.20;;
14994;SDS011;7593;49.006;8.372;2022-12-13T06:23:44;25.37;;;16.50;;
14994;SDS011;7593;49.006;8.372;2022-12-13T06:26:11;26.43;;;16.20;;
14994;SDS011;7593;49.006;8.372;2022-12-13T06:28:38;25.20;;;16.70;;
14994;SDS011;7593;49.006;8.372;2022-12-13T06:31:05;27.10;;;16.67;;
14994;SDS011;7593;49.006;8.372;2022-12-13T06:33:31;27.90;;;17.00;;
14994;SDS011;7593;49.006;8.372;2022-12-13T06:36:01;26.90;;;17.00;;
14994;SDS011;7593;49.006;8.372;2022-12-13T06:38:28;25.27;;;16.23;;
14994;SDS011;7593;49.006;8.372;2022-12-13T06:41:05;25.23;;;16.53;;
14994;SDS011;7593;49.006;8.372;2022-12-13T06:43:33;29.13;;;18.00;;
14994;SDS011;7593;49.006;8.372;2022-12-13T06:46:01;29.03;;;18.33;;
14994;SDS011;7593;49.006;8.372;2022-12-13T06:48:28;29.37;;;16.97;;
14994;SDS011;7593;49.006;8.372;2022-12-13T06:50:58;29.23;;;17.83;;
14994;SDS011;7593;49.006;8.372;2022-12-13T06:53:25;28.87;;;17.73;;
14994;SDS011;7593;49.006;8.372;2022-12-13T06:55:52;28.70;;;18.27;;
14994;SDS011;7593;49.006;8.372;2022-12-13T06:58:20;27.17;;;17.10;;
14994;SDS011;7593;49.006;8.372;2022-12-13T07:00:47;27.73;;;17.57;;
14994;SDS011;7593;49.006;8.372;2022-12-13T07:03:14;29.03;;;18.13;;
14994;SDS011;7593;49.006;8.372;2022-12-13T07:05:40;29.33;;;18.73;;
14994;SDS011;7593;49.006;8.372;2022-12-13T07:08:08;28.07;;;17.17;;
14994;SDS011;7593;49.006;8.372;2022-12-13T07:10:36;28.83;;;18.20;;
14994;SDS011;7593;49.006;8.372;2022-12-13T07:13:04;26.00;;;16.87;;
14994;SDS011;7593;49.006;8.372;2022-12-13T07:15:33;27.47;;;18.10;;
14994;SDS011;7593;49.006;8.372;2022-12-13T07:17:59;27.93;;;16.70;;
14994;SDS011;7593;49.006;8.372;2022-12-13T07:20:26;31.93;;;17.53;;
14994;SDS011;7593;49.006;8.372;2022-12-13T07:22:53;27.53;;;17.63;;
14994;SDS011;7593;49.006;8.372;2022-12-13T07:25:21;28.33;;;17.87;;
14994;SDS011;7593;49.006;8.372;2022-12-13T07:27:53;29.23;;;17.97;;
14994;SDS011;7593;49.006;8.372;2022-12-13T07:30:21;27.17;;;16.40;;
14994;SDS011;7593;49.006;8.372;2022-12-13T07:32:49;25.23;;;16.63;;
14994;SDS011;7593;49.006;8.372;2022-12-13T07:35:16;26.37;;;16.93;;
14994;SDS011;7593;49.006;8.372;2022-12-13T07:37:42;25.90;;;16.90;;
14994;SDS011;7593;49.006;8.372;2022-12-13T07:40:10;28.00;;;17.67;;
14994;SDS011;7593;49.006;8.372;2022-12-13T07:42:37;26.47;;;17.00;;
14994;SDS011;7593;49.006;8.372;2022-12-13T07:45:04;26.77;;;17.37;;
14994;SDS011;7593;49.006;8.372;2022-12-13T07:47:31;30.23;;;17.80;;
14994;SDS011;7593;49.006;8.372;2022-12-13T07:49:59;25.70;;;16.10;;
14994;SDS011;7593;49.006;8.372;2022-12-13T07:52:26;28.20;;;16.33;;
14994;SDS011;7593;49.006;8.372;2022-12-13T07:54:53;27.57;;;16.57;;
14994;SDS011;7593;49.006;8.372;2022-12-13T07:57:20;26.53;;;16.87;;
14994;SDS011;7593;49.006;8.372;2022-12-13T07:59:47;24.70;;;16.73;;
14994;SDS011;7593;49.006;8.372;2022-12-13T08:02:14;25.90;;;17.03;;
14994;SDS011;7593;49.006;8.372;2022-12-13T08:04:41;29.57;;;18.17;;
14994;SDS011;7593;49.006;8.372;2022-12-13T08:07:09;26.90;;;17.37;;
14994;SDS011;7593;49.006;8.372;2022-12-13T08:09:36;24.67;;;16.63;;
14994;SDS011;7593;49.006;8.372;2022-12-13T08:12:03;27.57;;;16.97;;
14994;SDS011;7593;49.006;8.372;2022-12-13T08:14:30;24.17;;;16.83;;
14994;SDS011;7593;49.006;8.372;2022-12-13T08:16:57;25.37;;;16.70;;
14994;SDS011;7593;49.006;8.372;2022-12-13T08:19:24;26.47;;;17.23;;
14994;SDS011;7593;49.006;8.372;2022-12-13T08:21:51;24.53;;;15.93;;
14994;SDS011;7593;49.006;8.372;2022-12-13T08:24:21;26.37;;;16.50;;
14994;SDS011;7593;49.006;8.372;2022-12-13T08:26:48;25.27;;;15.60;;
14994;SDS011;7593;49.006;8.372;2022-12-13T08:29:15;28.17;;;17.27;;
14994;SDS011;7593;49.006;8.372;2022-12-13T08:31:42;25.97;;;16.90;;
14994;SDS011;7593;49.006;8.372;2022-12-13T08:34:09;25.07;;;17.20;;
14994;SDS011;7593;49.006;8.372;2022-12-13T08:36:36;24.83;;;16.27;;
14994;SDS011;7593;49.006;8.372;2022-12-13T08:39:03;26.03;;;16.63;;
14994;SDS011;7593;49.006;8.372;2022-12-13T08:41:31;24.63;;;16.57;;
14994;SDS011;7593;49.006;8.372;2022-12-13T08:43:58;26.03;;;16.23;;
14994;SDS011;7593;49.006;8.372;2022-12-13T08:46:25;25.27;;;16.43;;
14994;SDS011;7593;49.006;8.372;2022-12-13T08:48:52;25.23;;;16.30;;
14994;SDS011;7593;49.006;8.372;2022-12-13T08:51:19;26.23;;;16.00;;
14994;SDS011;7593;49.006;8.372;2022-12-13T08:53:47;23.67;;;15.73;;
14994;SDS011;7593;49.006;8.372;2022-12-13T08:56:14;23.00;;;15.67;;
14994;SDS011;7593;49.006;8.372;2022-12-13T08:58:47;24.27;;;16.43;;
14994;SDS011;7593;49.006;8.372;2022-12-13T09:01:15;27.30;;;15.53;;
14994;SDS011;7593;49.006;8.372;2022-12-13T09:03:42;22.53;;;15.73;;
14994;SDS011;7593;49.006;8.372;2022-12-13T09:06:10;24.47;;;15.93;;
14994;SDS011;7593;49.006;8.372;2022-12-13T09:08:38;23.67;;;15.37;;
14994;SDS011;7593;49.006;8.372;2022-12-13T09:11:05;24.10;;;16.20;;
14994;SDS011;7593;49.006;8.372;2022-12-13T09:13:34;27.43;;;16.00;;
14994;SDS011;7593;49.006;8.372;2022-12-13T09:16:04;23.30;;;14.90;;
14994;SDS011;7593;49.006;8.372;2022-12-13T09:18:33;27.73;;;15.43;;
14994;SDS011;7593;49.006;8.372;2022-12-13T09:21:04;20.80;;;14.17;;
14994;SDS011;7593;49.006;8.372;2022-12-13T09:23:31;21.97;;;14.57;;
14994;SDS011;7593;49.006;8.372;2022-12-13T09:25:58;22.00;;;14.30;;
14994;SDS011;7593;49.006;8.372;2022-12-13T09:28:25;24.63;;;15.40;;
14994;SDS011;7593;49.006;8.372;2022-12-13T09:30:53;21.57;;;13.70;;
14994;SDS011;7593;49.006;8.372;2022-12-13T09:33:21;22.63;;;14.37;;
14994;SDS011;7593;49.006;8.372;2022-12-13T09:35:49;20.43;;;14.30;;
14994;SDS011;7593;49.006;8.372;2022-12-13T09:38:16;19.03;;;13.77;;
14994;SDS011;7593;49.006;8.372;2022-12-13T09:40:43;19.00;;;13.97;;
14994;SDS011;7593;49.006;8.372;2022-12-13T09:43:15;21.47;;;12.93;;
14994;SDS011;7593;49.006;8.372;2022-12-13T09:45:48;23.23;;;13.47;;
14994;SDS011;7593;49.006;8.372;2022-12-13T09:48:15;22.30;;;13.43;;
14994;SDS011;7593;49.006;8.372;2022-12-13T09:50:45;27.40;;;14.03;;
14994;SDS011;7593;49.006;8.372;2022-12-13T09:53:13;19.93;;;13.57;;
14994;SDS011;7593;49.006;8.372;2022-12-13T09:55:43;19.97;;;14.13;;
14994;SDS011;7593;49.006;8.372;2022-12-13T09:58:13;22.97;;;13.40;;
14994;SDS011;7593;49.006;8.372;2022-12-13T10:00:44;18.53;;;13.60;;
14994;SDS011;7593;49.006;8.372;2022-12-13T10:03:13;28.17;;;14.60;;
14994;SDS011;7593;49.006;8.372;2022-12-13T10:05:43;19.83;;;12.60;;
14994;SDS011;7593;49.006;8.372;2022-12-13T10:08:18;24.20;;;13.03;;
14994;SDS011;7593;49.006;8.372;2022-12-13T10:10:48;16.63;;;12.37;;
14994;SDS011;7593;49.006;8.372;2022-12-13T10:13:18;21.27;;;13.63;;
14994;SDS011;7593;49.006;8.372;2022-12-13T10:15:52;16.97;;;12.47;;
14994;SDS011;7593;49.006;8.372;2022-12-13T10:18:24;17.77;;;12.67;;
14994;SDS011;7593;49.006;8.372;2022-12-13T10:20:59;19.80;;;13.17;;
14994;SDS011;7593;49.006;8.372;2022-12-13T10:23:28;19.27;;;12.80;;
14994;SDS011;7593;49.006;8.372;2022-12-13T10:25:55;17.73;;;12.13;;
14994;SDS011;7593;49.006;8.372;2022-12-13T10:28:23;20.10;;;12.07;;
14994;SDS011;7593;49.006;8.372;2022-12-13T10:30:53;21.20;;;12.53;;
14994;SDS011;7593;49.006;8.372;2022-12-13T10:33:22;18.00;;;12.43;;
14994;SDS011;7593;49.006;8.372;2022-12-13T10:36:02;15.97;;;11.93;;
14994;SDS011;7593;49.006;8.372;2022-12-13T10:38:33;18.27;;;12.20;;
14994;SDS011;7593;49.006;8.372;2022-12-13T10:41:02;22.83;;;12.93;;
14994;SDS011;7593;49.006;8.372;2022-12-13T10:43:52;19.53;;;12.23;;
14994;SDS011;7593;49.006;8.372;2022-12-13T10:46:42;15.83;;;12.17;;
14994;SDS011;7593;49.006;8.372;2022-12-13T10:49:14;20.80;;;12.90;;
14994;SDS011;7593;49.006;8.372;2022-12-13T10:51:44;19.20;;;12.00;;
14994;SDS011;7593;49.006;8.372;2022-12-13T10:54:14;16.60;;;12.30;;
14994;SDS011;7593;49.006;8.372;2022-12-13T10:56:44;19.90;;;12.67;;
14994;SDS011;7593;49.006;8.372;2022-12-13T10:59:22;18.20;;;11.90;;
14994;SDS011;7593;49.006;8.372;2022-12-13T11:01:51;16.33;;;12.00;;
14994;SDS011;7593;49.006;8.372;2022-12-13T11:04:20;33.27;;;12.67;;
14994;SDS011;7593;49.006;8.372;2022-12-13T11:06:50;17.30;;;11.97;;
14994;SDS011;7593;49.006;8.372;2022-12-13T11:09:23;16.83;;;12.30;;
14994;SDS011;7593;49.006;8.372;2022-12-13T11:11:50;20.50;;;12.47;;
14994;SDS011;7593;49.006;8.372;2022-12-13T11:14:19;17.07;;;11.73;;
14994;SDS011;7593;49.006;8.372;2022-12-13T11:16:50;18.73;;;12.20;;
14994;SDS011;7593;49.006;8.372;2022-12-13T11:19:21;17.93;;;12.10;;
14994;SDS011;7593;49.006;8.372;2022-12-13T11:21:53;15.20;;;11.00;;
14994;SDS011;7593;49.006;8.372;2022-12-13T11:24:21;16.13;;;11.40;;
14994;SDS011;7593;49.006;8.372;2022-12-13T11:26:52;16.47;;;11.77;;
14994;SDS011;7593;49.006;8.372;2022-12-13T11:29:39;18.07;;;13.20;;
14994;SDS011;7593;49.006;8.372;2022-12-13T11:32:17;18.27;;;12.60;;
14994;SDS011;7593;49.006;8.372;2022-12-13T11:34:55;16.47;;;11.70;;
14994;SDS011;7593;49.006;8.372;2022-12-13T11:37:37;15.37;;;11.07;;
14994;SDS011;7593;49.006;8.372;2022-12-13T11:40:11;18.00;;;11.40;;
14994;SDS011;7593;49.006;8.372;2022-12-13T11:42:42;20.27;;;13.43;;
14994;SDS011;7593;49.006;8.372;2022-12-13T11:45:16;17.87;;;11.67;;
14994;SDS011;7593;49.006;8.372;2022-12-13T11:47:47;21.57;;;12.50;;
14994;SDS011;7593;49.006;8.372;2022-12-13T11:50:21;20.03;;;11.20;;
14994;SDS011;7593;49.006;8.372;2022-12-13T11:52:52;16.87;;;10.47;;
14994;SDS011;7593;49.006;8.372;2022-12-13T11:55:23;20.03;;;11.93;;
14994;SDS011;7593;49.006;8.372;2022-12-13T11:58:00;15.87;;;11.40;;
14994;SDS011;7593;49.006;8.372;2022-12-13T12:00:36;16.10;;;11.60;;
14994;SDS011;7593;49.006;8.372;2022-12-13T12:03:11;17.80;;;10.80;;
14994;SDS011;7593;49.006;8.372;2022-12-13T12:05:44;15.60;;;10.37;;
14994;SDS011;7593;49.006;8.372;2022-12-13T12:08:17;14.83;;;10.77;;
14994;SDS011;7593;49.006;8.372;2022-12-13T12:10:47;16.40;;;11.40;;
14994;SDS011;7593;49.006;8.372;2022-12-13T12:13:17;16.30;;;10.80;;
14994;SDS011;7593;49.006;8.372;2022-12-13T12:15:49;15.23;;;10.60;;
14994;SDS011;7593;49.006;8.372;2022-12-13T12:18:22;17.00;;;10.67;;
14994;SDS011;7593;49.006;8.372;2022-12-13T12:20:52;12.90;;;10.17;;
14994;SDS011;7593;49.006;8.372;2022-12-13T12:23:33;18.17;;;11.37;;
14994;SDS011;7593;49.006;8.372;2022-12-13T12:26:13;17.83;;;11.10;;
14994;SDS011;7593;49.006;8.372;2022-12-13T12:28:49;15.20;;;11.10;;
14994;SDS011;7593;49.006;8.372;2022-12-13T12:31:32;21.60;;;11.47;;
14994;SDS011;7593;49.006;8.372;2022-12-13T12:34:07;19.07;;;12.07;;
14994;SDS011;7593;49.006;8.372;2022-12-13T12:36:44;16.50;;;10.30;;
14994;SDS011;7593;49.006;8.372;2022-12-13T12:39:42;23.93;;;11.17;;
14994;SDS011;7593;49.006;8.372;2022-12-13T12:42:20;17.23;;;11.33;;
14994;SDS011;7593;49.006;8.372;2022-12-13T12:45:25;17.70;;;10.57;;
14994;SDS011;7593;49.006;8.372;2022-12-13T12:48:06;17.13;;;11.43;;
14994;SDS011;7593;49.006;8.372;2022-12-13T12:50:46;14.07;;;10.77;;
14994;SDS011;7593;49.006;8.372;2022-12-13T12:53:27;18.77;;;11.90;;
14994;SDS011;7593;49.006;8.372;2022-12-13T12:56:17;35.20;;;11.63;;
14994;SDS011;7593;49.006;8.372;2022-12-13T12:58:57;17.40;;;11.07;;
14994;SDS011;7593;49.006;8.372;2022-12-13T13:01:38;14.73;;;11.10;;
14994;SDS011;7593;49.006;8.372;2022-12-13T13:04:18;18.67;;;11.27;;
14994;SDS011;7593;49.006;8.372;2022-12-13T13:06:49;14.53;;;11.07;;
14994;SDS011;7593;49.006;8.372;2022-12-13T13:09:21;18.80;;;11.23;;
14994;SDS011;7593;49.006;8.372;2022-12-13T13:11:50;17.77;;;11.47;;
14994;SDS011;7593;49.006;8.372;2022-12-13T13:14:26;23.33;;;11.47;;
14994;SDS011;7593;49.006;8.372;2022-12-13T13:16:55;18.40;;;10.97;;
14994;SDS011;7593;49.006;8.372;2022-12-13T13:19:45;17.33;;;11.13;;
14994;SDS011;7593;49.006;8.372;2022-12-13T13:22:25;18.60;;;11.57;;
14994;SDS011;7593;49.006;8.372;2022-12-13T13:24:57;17.53;;;11.20;;
14994;SDS011;7593;49.006;8.372;2022-12-13T13:27:41;25.37;;;11.60;;
14994;SDS011;7593;49.006;8.372;2022-12-13T13:30:14;18.13;;;11.83;;
14994;SDS011;7593;49.006;8.372;2022-12-13T13:32:43;25.37;;;11.70;;
14994;SDS011;7593;49.006;8.372;2022-12-13T13:44:52;17.13;;;12.20;;
14994;SDS011;7593;49.006;8.372;2022-12-13T13:47:32;19.77;;;12.90;;
14994;SDS011;7593;49.006;8.372;2022-12-13T13:53:05;16.53;;;12.03;;
14994;SDS011;7593;49.006;8.372;2022-12-13T13:55:51;15.77;;;10.67;;
14994;SDS011;7593;49.006;8.372;2022-12-13T13:58:34;16.90;;;11.67;;
14994;SDS011;7593;49.006;8.372;2022-12-13T14:01:34;14.43;;;11.20;;
14994;SDS011;7593;49.006;8.372;2022-12-13T14:07:44;19.93;;;12.07;;
14994;SDS011;7593;49.006;8.372;2022-12-13T14:10:28;18.20;;;12.33;;
14994;SDS011;7593;49.006;8.372;2022-12-13T14:19:42;16.97;;;11.20;;
14994;SDS011;7593;49.006;8.372;2022-12-13T14:22:37;19.10;;;11.83;;
14994;SDS011;7593;49.006;8.372;2022-12-13T14:25:24;19.40;;;11.90;;
14994;SDS011;7593;49.006;8.372;2022-12-13T14:28:07;15.97;;;11.10;;
14994;SDS011;7593;49.006;8.372;2022-12-13T14:30:40;16.20;;;11.17;;
14994;SDS011;7593;49.006;8.372;2022-12-13T14:33:11;14.93;;;10.50;;
14994;SDS011;7593;49.006;8.372;2022-12-13T14:35:50;17.47;;;11.23;;
14994;SDS011;7593;49.006;8.372;2022-12-13T14:38:19;14.60;;;10.43;;
14994;SDS011;7593;49.006;8.372;2022-12-13T14:40:49;17.50;;;11.47;;
14994;SDS011;7593;49.006;8.372;2022-12-13T14:43:21;16.73;;;12.70;;
14994;SDS011;7593;49.006;8.372;2022-12-13T14:45:51;15.80;;;11.50;;
14994;SDS011;7593;49.006;8.372;2022-12-13T14:48:20;17.53;;;10.70;;
14994;SDS011;7593;49.006;8.372;2022-12-13T14:50:49;18.07;;;12.37;;
14994;SDS011;7593;49.006;8.372;2022-12-13T14:53:20;16.13;;;11.73;;
14994;SDS011;7593;49.006;8.372;2022-12-13T14:56:04;18.80;;;12.20;;
14994;SDS011;7593;49.006;8.372;2022-12-13T14:58:33;17.00;;;11.30;;
14994;SDS011;7593;49.006;8.372;2022-12-13T15:01:01;21.90;;;11.83;;
14994;SDS011;7593;49.006;8.372;2022-12-13T15:03:28;15.60;;;11.37;;
14994;SDS011;7593;49.006;8.372;2022-12-13T15:05:57;16.33;;;10.97;;
14994;SDS011;7593;49.006;8.372;2022-12-13T15:08:26;16.70;;;11.60;;
14994;SDS011;7593;49.006;8.372;2022-12-13T15:10:54;18.37;;;12.60;;
14994;SDS011;7593;49.006;8.372;2022-12-13T15:13:26;17.50;;;11.93;;
14994;SDS011;7593;49.006;8.372;2022-12-13T15:15:57;17.23;;;11.20;;